createdAt,value
2022-12-12T00:03:42.367Z,1.20
2022-12-12T00:10:42.529Z,1.20
2022-12-12T00:17:43.173Z,1.30
2022-12-12T00:24:43.824Z,1.30
2022-12-12T00:31:44.184Z,1.30
2022-12-12T00:38:45.034Z,1.30
2022-12-12T00:45:46.223Z,1.30
2022-12-12T00:52:46.645Z,1.30
2022-12-12T00:59:47.036Z,1.30
2022-12-12T01:06:47.479Z,1.40
2022-12-12T01:13:49.121Z,1.40
2022-12-12T01:20:49.528Z,1.40
2022-12-12T01:27:49.987Z,1.30
2022-12-12T01:34:50.259Z,1.30
2022-12-12T01:41:50.837Z,1.30
2022-12-12T01:48:58.748Z,1.30
2022-12-12T01:56:02.408Z,1.30
2022-12-12T02:03:02.808Z,1.30
2022-12-12T02:10:03.451Z,1.20
2022-12-12T02:17:18.869Z,1.30
2022-12-12T02:24:44.710Z,1.30
2022-12-12T02:31:50.317Z,1.30
2022-12-12T02:38:50.317Z,1.20
2022-12-12T02:45:56.545Z,1.20
2022-12-12T02:52:58.474Z,1.20
2022-12-12T03:00:02.223Z,1.10
2022-12-12T03:07:25.965Z,1.10
2022-12-12T03:14:34.482Z,1.10
2022-12-12T03:21:51.044Z,1.00
2022-12-12T03:29:02.326Z,1.00
2022-12-12T03:36:26.876Z,0.90
2022-12-12T03:43:31.791Z,0.90
2022-12-12T03:50:40.064Z,0.80
2022-12-12T03:57:57.562Z,0.80
2022-12-12T04:05:25.711Z,0.80
2022-12-12T04:12:57.195Z,0.70
2022-12-12T04:20:27.645Z,0.70
2022-12-12T04:27:34.350Z,0.70
2022-12-12T04:34:42.555Z,0.60
2022-12-12T04:41:46.388Z,0.70
2022-12-12T04:48:53.011Z,0.70
2022-12-12T04:55:56.923Z,0.70
2022-12-12T05:03:10.852Z,0.70
2022-12-12T05:10:16.292Z,0.60
2022-12-12T05:17:25.829Z,0.50
2022-12-12T05:24:31.066Z,0.50
2022-12-12T05:31:31.584Z,0.40
2022-12-12T05:38:32.006Z,0.30
2022-12-12T05:45:32.474Z,0.30
2022-12-12T05:52:33.353Z,0.40
2022-12-12T05:59:33.467Z,0.40
2022-12-12T06:06:34.062Z,0.30
2022-12-12T06:13:35.096Z,0.30
2022-12-12T06:20:36.264Z,0.30
2022-12-12T06:27:36.706Z,0.20
2022-12-12T06:34:38.559Z,0.10
2022-12-12T06:41:39.702Z,0.10
2022-12-12T06:48:40.271Z,0.00
2022-12-12T06:55:43.935Z,0.00
2022-12-12T07:02:44.019Z,0.00
2022-12-12T07:09:44.556Z,0.00
2022-12-12T07:16:44.604Z,0.00
2022-12-12T07:23:45.381Z,0.00
2022-12-12T07:30:47.208Z,-0.10
2022-12-12T07:37:47.789Z,-0.10
2022-12-12T07:44:48.127Z,-0.10
2022-12-12T07:51:49.337Z,-0.10
2022-12-12T07:58:51.069Z,-0.10
2022-12-12T08:05:51.584Z,-0.10
2022-12-12T08:12:51.955Z,-0.20
2022-12-12T08:19:52.280Z,-0.20
2022-12-12T08:26:53.642Z,-0.30
2022-12-12T08:33:54.777Z,-0.30
2022-12-12T08:40:55.627Z,-0.30
2022-12-12T08:47:55.995Z,-0.30
2022-12-12T08:54:56.286Z,-0.30
2022-12-12T09:01:56.759Z,-0.30
2022-12-12T09:08:57.577Z,-0.20
2022-12-12T09:15:58.063Z,-0.20
2022-12-12T09:22:58.212Z,-0.10
2022-12-12T09:29:58.846Z,-0.10
2022-12-12T09:36:59.337Z,0.00
2022-12-12T09:44:08.232Z,0.00
2022-12-12T09:51:10.806Z,0.10
2022-12-12T09:58:19.356Z,0.20
2022-12-12T10:05:28.696Z,0.30
2022-12-12T10:12:29.825Z,0.40
2022-12-12T10:19:35.528Z,0.40
2022-12-12T10:26:35.651Z,0.50
2022-12-12T10:34:01.725Z,0.60
2022-12-12T10:41:34.959Z,0.70
2022-12-12T10:48:35.209Z,0.80
2022-12-12T10:55:53.367Z,0.80
2022-12-12T11:03:00.140Z,0.90
2022-12-12T11:10:02.489Z,1.00
2022-12-12T11:17:18.639Z,1.20
2022-12-12T11:24:22.586Z,1.20
2022-12-12T11:31:26.505Z,1.30
2022-12-12T11:38:31.148Z,1.40
2022-12-12T11:45:31.364Z,1.50
2022-12-12T11:52:33.240Z,1.60
2022-12-12T11:59:59.050Z,1.70
2022-12-12T12:07:18.653Z,1.70
2022-12-12T12:14:33.620Z,1.80
2022-12-12T12:21:47.514Z,1.90
2022-12-12T12:28:53.444Z,1.90
2022-12-12T12:36:24.672Z,2.00
2022-12-12T12:43:47.146Z,2.10
2022-12-12T12:51:01.994Z,2.20
2022-12-12T12:58:05.905Z,2.20
2022-12-12T13:05:30.188Z,2.30
2022-12-12T13:12:39.845Z,2.40
2022-12-12T13:19:44.104Z,2.40
2022-12-12T13:26:53.514Z,2.40
2022-12-12T13:34:04.661Z,2.50
2022-12-12T13:41:07.558Z,2.60
2022-12-12T13:48:35.697Z,2.70
2022-12-12T13:55:37.077Z,2.80
2022-12-12T14:02:40.013Z,2.80
2022-12-12T14:09:49.069Z,2.80
2022-12-12T14:16:55.593Z,2.90
2022-12-12T14:24:34.829Z,3.00
2022-12-12T14:31:43.010Z,3.00
2022-12-12T14:39:04.254Z,3.00
2022-12-12T14:46:05.052Z,3.10
2022-12-12T14:53:16.448Z,2.90
2022-12-12T15:00:20.326Z,2.70
2022-12-12T15:07:34.894Z,2.50
2022-12-12T15:14:35.132Z,2.30
2022-12-12T15:21:35.616Z,2.10
2022-12-12T15:28:36.024Z,1.90
2022-12-12T15:35:36.543Z,1.80
2022-12-12T15:42:38.847Z,1.60
2022-12-12T15:49:41.734Z,1.40
2022-12-12T15:56:49.914Z,1.20
2022-12-12T16:03:56.102Z,1.00
2022-12-12T16:10:57.730Z,0.90
2022-12-12T16:18:04.935Z,0.80
2022-12-12T16:25:21.315Z,0.70
2022-12-12T16:32:23.403Z,0.60
2022-12-12T16:39:23.505Z,0.50
2022-12-12T16:46:25.324Z,0.30
2022-12-12T16:53:25.590Z,0.30
2022-12-12T17:00:26.037Z,0.20
2022-12-12T17:07:26.386Z,0.20
2022-12-12T17:14:26.944Z,0.20
2022-12-12T17:21:27.056Z,0.10
2022-12-12T17:28:27.884Z,0.00
2022-12-12T17:35:28.197Z,-0.10
2022-12-12T17:42:32.289Z,-0.20
2022-12-12T17:49:32.504Z,-0.30
2022-12-12T17:56:34.034Z,-0.40
2022-12-12T18:03:35.223Z,-0.40
2022-12-12T18:10:37.278Z,-0.50
2022-12-12T18:17:38.167Z,-0.60
2022-12-12T18:24:38.343Z,-0.70
2022-12-12T18:31:39.390Z,-0.80
2022-12-12T18:38:45.744Z,-0.90
2022-12-12T18:45:48.120Z,-0.90
2022-12-12T18:52:48.365Z,-1.00
2022-12-12T18:59:48.679Z,-1.10
2022-12-12T19:06:50.432Z,-1.10
2022-12-12T19:13:50.571Z,-1.20
2022-12-12T19:20:53.495Z,-1.30
2022-12-12T19:27:54.116Z,-1.40
2022-12-12T19:34:54.538Z,-1.40
2022-12-12T19:41:55.059Z,-1.40
2022-12-12T19:49:04.529Z,-1.50
2022-12-12T19:56:05.493Z,-1.50
2022-12-12T20:03:05.710Z,-1.50
2022-12-12T20:10:06.465Z,-1.60
2022-12-12T20:17:07.128Z,-1.60
2022-12-12T20:24:07.777Z,-1.70
2022-12-12T20:31:10.583Z,-1.70
2022-12-12T20:38:11.115Z,-1.80
2022-12-12T20:45:12.131Z,-1.90
2022-12-12T20:52:12.921Z,-2.00
2022-12-12T20:59:14.279Z,-2.00
2022-12-12T21:06:36.117Z,-2.00
2022-12-12T21:13:36.616Z,-2.00
2022-12-12T21:20:37.324Z,-2.10
2022-12-12T21:27:37.491Z,-2.10
2022-12-12T21:34:40.067Z,-2.10
2022-12-12T21:41:43.597Z,-2.10
2022-12-12T21:48:43.818Z,-2.10
2022-12-12T21:55:44.315Z,-2.20
2022-12-12T22:02:49.759Z,-2.30
2022-12-12T22:09:57.093Z,-2.30
2022-12-12T22:17:10.500Z,-2.40
2022-12-12T22:24:10.993Z,-2.50
2022-12-12T22:31:11.477Z,-2.60
2022-12-12T22:38:12.074Z,-2.60
2022-12-12T22:45:13.288Z,-2.70
2022-12-12T22:52:13.711Z,-2.70
2022-12-12T22:59:14.503Z,-2.80
2022-12-12T23:06:18.570Z,-2.80
2022-12-12T23:13:18.753Z,-2.80
2022-12-12T23:20:20.134Z,-2.80
2022-12-12T23:27:20.356Z,-2.90
2022-12-12T23:34:23.625Z,-2.90
2022-12-12T23:41:24.391Z,-2.90
2022-12-12T23:48:24.535Z,-2.90
2022-12-12T23:55:25.374Z,-3.00
